sensor_id;sensor_type;location;lat;lon;timestamp;pressure;altitude;pressure_sealevel;temperature;humidity
56270;BME280;42176;43.240;27.880;2022-08-14T00:02:22;99318.16;;;22.08;86.26
56270;BME280;42176;43.240;27.880;2022-08-14T00:04:47;99320.13;;;22.05;85.85
56270;BME280;42176;43.240;27.880;2022-08-14T00:07:13;99314.72;;;22.05;84.94
56270;BME280;42176;43.240;27.880;2022-08-14T00:09:38;99305.16;;;22.01;83.77
56270;BME280;42176;43.240;27.880;2022-08-14T00:12:04;99299.28;;;21.96;83.06
56270;BME280;42176;43.240;27.880;2022-08-14T00:14:31;99290.72;;;21.91;83.90
56270;BME280;42176;43.240;27.880;2022-08-14T00:16:56;99276.75;;;21.86;82.01
56270;BME280;42176;43.240;27.880;2022-08-14T00:19:22;99271.34;;;21.86;81.68
56270;BME280;42176;43.240;27.880;2022-08-14T00:24:15;99277.19;;;22.02;79.70
56270;BME280;42176;43.240;27.880;2022-08-14T00:26:40;99279.50;;;22.07;79.40
56270;BME280;42176;43.240;27.880;2022-08-14T00:29:06;99275.56;;;22.11;77.96
56270;BME280;42176;43.240;27.880;2022-08-14T00:31:31;99275.41;;;22.13;78.18
56270;BME280;42176;43.240;27.880;2022-08-14T00:33:57;99281.28;;;22.18;78.76
56270;BME280;42176;43.240;27.880;2022-08-14T00:36:23;99271.97;;;22.22;77.98
56270;BME280;42176;43.240;27.880;2022-08-14T00:38:49;99275.06;;;22.17;77.98
56270;BME280;42176;43.240;27.880;2022-08-14T00:41:14;99276.16;;;22.15;78.40
56270;BME280;42176;43.240;27.880;2022-08-14T00:43:40;99272.72;;;22.13;79.20
56270;BME280;42176;43.240;27.880;2022-08-14T00:46:08;99286.84;;;22.05;79.82
56270;BME280;42176;43.240;27.880;2022-08-14T00:48:35;99288.75;;;21.93;82.23
56270;BME280;42176;43.240;27.880;2022-08-14T00:51:03;99284.84;;;21.86;84.54
56270;BME280;42176;43.240;27.880;2022-08-14T00:53:28;99287.53;;;21.86;84.43
56270;BME280;42176;43.240;27.880;2022-08-14T00:55:54;99283.88;;;21.87;82.99
56270;BME280;42176;43.240;27.880;2022-08-14T00:58:22;99274.78;;;21.88;82.75
56270;BME280;42176;43.240;27.880;2022-08-14T01:01:05;99279.19;;;21.89;81.44
56270;BME280;42176;43.240;27.880;2022-08-14T01:03:33;99282.16;;;21.86;81.01
56270;BME280;42176;43.240;27.880;2022-08-14T01:06:05;99273.84;;;21.78;80.92
56270;BME280;42176;43.240;27.880;2022-08-14T01:08:31;99284.63;;;21.78;79.98
56270;BME280;42176;43.240;27.880;2022-08-14T01:10:57;99287.09;;;21.69;80.50
56270;BME280;42176;43.240;27.880;2022-08-14T01:13:24;99287.22;;;21.56;80.86
56270;BME280;42176;43.240;27.880;2022-08-14T01:15:53;99289.19;;;21.54;80.48
56270;BME280;42176;43.240;27.880;2022-08-14T01:18:20;99279.50;;;21.52;81.14
56270;BME280;42176;43.240;27.880;2022-08-14T01:21:07;99280.38;;;21.52;80.98
56270;BME280;42176;43.240;27.880;2022-08-14T01:23:39;99281.22;;;21.53;81.09
56270;BME280;42176;43.240;27.880;2022-08-14T01:26:06;99285.50;;;21.55;80.79
56270;BME280;42176;43.240;27.880;2022-08-14T01:28:33;99285.50;;;21.55;81.10
56270;BME280;42176;43.240;27.880;2022-08-14T01:31:05;99288.31;;;21.54;81.48
56270;BME280;42176;43.240;27.880;2022-08-14T01:33:35;99283.16;;;21.51;80.44
56270;BME280;42176;43.240;27.880;2022-08-14T01:36:05;99290.28;;;21.52;80.06
56270;BME280;42176;43.240;27.880;2022-08-14T01:38:33;99290.78;;;21.45;80.38
56270;BME280;42176;43.240;27.880;2022-08-14T01:41:01;99297.16;;;21.44;81.22
56270;BME280;42176;43.240;27.880;2022-08-14T01:43:26;99290.06;;;21.43;81.06
56270;BME280;42176;43.240;27.880;2022-08-14T01:45:57;99297.41;;;21.41;81.46
56270;BME280;42176;43.240;27.880;2022-08-14T01:48:23;99300.25;;;21.40;81.55
56270;BME280;42176;43.240;27.880;2022-08-14T01:50:49;99284.41;;;21.35;80.48
56270;BME280;42176;43.240;27.880;2022-08-14T01:53:15;99297.28;;;21.43;80.19
56270;BME280;42176;43.240;27.880;2022-08-14T01:55:42;99297.28;;;21.43;80.42
56270;BME280;42176;43.240;27.880;2022-08-14T01:58:07;99292.00;;;21.41;80.61
56270;BME280;42176;43.240;27.880;2022-08-14T02:00:42;99284.31;;;21.37;80.98
56270;BME280;42176;43.240;27.880;2022-08-14T02:03:08;99289.91;;;21.45;80.71
56270;BME280;42176;43.240;27.880;2022-08-14T02:05:34;99288.19;;;21.44;80.34
56270;BME280;42176;43.240;27.880;2022-08-14T02:07:59;99288.09;;;21.45;80.29
56270;BME280;42176;43.240;27.880;2022-08-14T02:10:25;99285.03;;;21.39;80.88
56270;BME280;42176;43.240;27.880;2022-08-14T02:12:55;99279.41;;;21.30;81.47
56270;BME280;42176;43.240;27.880;2022-08-14T02:15:22;99279.28;;;21.32;81.44
56270;BME280;42176;43.240;27.880;2022-08-14T02:17:49;99268.75;;;21.29;81.59
56270;BME280;42176;43.240;27.880;2022-08-14T02:20:14;99275.13;;;21.05;83.17
56270;BME280;42176;43.240;27.880;2022-08-14T02:22:42;99263.13;;;21.09;83.56
56270;BME280;42176;43.240;27.880;2022-08-14T02:25:08;99265.56;;;21.24;83.13
56270;BME280;42176;43.240;27.880;2022-08-14T02:27:34;99265.81;;;21.21;83.40
56270;BME280;42176;43.240;27.880;2022-08-14T02:30:02;99267.03;;;21.28;83.90
56270;BME280;42176;43.240;27.880;2022-08-14T02:32:29;99271.81;;;21.24;84.06
56270;BME280;42176;43.240;27.880;2022-08-14T02:34:55;99262.38;;;21.19;84.96
56270;BME280;42176;43.240;27.880;2022-08-14T02:37:21;99261.75;;;21.15;85.08
56270;BME280;42176;43.240;27.880;2022-08-14T02:39:46;99264.34;;;21.17;85.11
56270;BME280;42176;43.240;27.880;2022-08-14T02:42:16;99263.38;;;21.18;85.33
56270;BME280;42176;43.240;27.880;2022-08-14T02:44:43;99270.72;;;21.27;84.45
56270;BME280;42176;43.240;27.880;2022-08-14T02:47:08;99273.88;;;21.21;84.45
56270;BME280;42176;43.240;27.880;2022-08-14T02:49:35;99278.44;;;21.20;84.55
56270;BME280;42176;43.240;27.880;2022-08-14T02:52:01;99274.63;;;21.23;84.80
56270;BME280;42176;43.240;27.880;2022-08-14T02:54:28;99277.22;;;21.24;84.29
56270;BME280;42176;43.240;27.880;2022-08-14T02:56:56;99269.00;;;21.26;84.20
56270;BME280;42176;43.240;27.880;2022-08-14T02:59:22;99268.00;;;21.27;84.50
56270;BME280;42176;43.240;27.880;2022-08-14T03:01:49;99267.03;;;21.28;84.24
56270;BME280;42176;43.240;27.880;2022-08-14T03:04:15;99266.78;;;21.31;83.90
56270;BME280;42176;43.240;27.880;2022-08-14T03:06:41;99271.44;;;21.29;83.73
56270;BME280;42176;43.240;27.880;2022-08-14T03:09:10;99265.31;;;21.27;83.99
56270;BME280;42176;43.240;27.880;2022-08-14T03:11:36;99258.06;;;21.27;84.04
56270;BME280;42176;43.240;27.880;2022-08-14T03:14:02;99260.16;;;21.24;84.30
56270;BME280;42176;43.240;27.880;2022-08-14T03:16:29;99262.63;;;21.16;84.89
56270;BME280;42176;43.240;27.880;2022-08-14T03:19:01;99266.06;;;21.06;85.75
56270;BME280;42176;43.240;27.880;2022-08-14T03:21:28;99262.63;;;20.93;86.34
56270;BME280;42176;43.240;27.880;2022-08-14T03:23:57;99262.50;;;21.06;86.20
56270;BME280;42176;43.240;27.880;2022-08-14T03:26:35;99263.25;;;21.19;85.23
56270;BME280;42176;43.240;27.880;2022-08-14T03:29:01;99266.06;;;21.29;84.90
56270;BME280;42176;43.240;27.880;2022-08-14T03:31:28;99265.06;;;21.30;84.94
56270;BME280;42176;43.240;27.880;2022-08-14T03:33:53;99270.94;;;21.24;85.77
56270;BME280;42176;43.240;27.880;2022-08-14T03:36:20;99266.53;;;21.34;85.63
56270;BME280;42176;43.240;27.880;2022-08-14T03:38:48;99267.53;;;21.33;85.62
56270;BME280;42176;43.240;27.880;2022-08-14T03:41:22;99255.03;;;21.21;84.86
56270;BME280;42176;43.240;27.880;2022-08-14T03:44:00;99267.53;;;21.22;85.81
56270;BME280;42176;43.240;27.880;2022-08-14T03:46:29;99262.25;;;21.32;85.57
56270;BME280;42176;43.240;27.880;2022-08-14T03:48:55;99261.75;;;21.38;84.91
56270;BME280;42176;43.240;27.880;2022-08-14T03:51:22;99252.66;;;21.50;84.33
56270;BME280;42176;43.240;27.880;2022-08-14T03:53:51;99267.72;;;21.75;83.26
56270;BME280;42176;43.240;27.880;2022-08-14T03:56:17;99257.97;;;21.96;82.09
56270;BME280;42176;43.240;27.880;2022-08-14T03:58:48;99261.16;;;22.22;81.19
56270;BME280;42176;43.240;27.880;2022-08-14T04:01:16;99263.63;;;22.68;78.21
56270;BME280;42176;43.240;27.880;2022-08-14T04:03:47;99264.97;;;23.04;75.83
56270;BME280;42176;43.240;27.880;2022-08-14T04:06:13;99253.56;;;23.32;74.22
56270;BME280;42176;43.240;27.880;2022-08-14T04:08:41;99259.63;;;23.75;71.96
56270;BME280;42176;43.240;27.880;2022-08-14T04:11:08;99268.25;;;24.09;70.50
56270;BME280;42176;43.240;27.880;2022-08-14T04:13:36;99258.00;;;24.32;68.77
56270;BME280;42176;43.240;27.880;2022-08-14T04:16:04;99261.63;;;24.61;68.16
56270;BME280;42176;43.240;27.880;2022-08-14T04:18:30;99263.00;;;25.04;65.90
56270;BME280;42176;43.240;27.880;2022-08-14T04:20:57;99260.53;;;25.39;64.84
56270;BME280;42176;43.240;27.880;2022-08-14T04:23:24;99260.75;;;25.56;62.95
56270;BME280;42176;43.240;27.880;2022-08-14T04:25:50;99267.31;;;25.81;62.66
56270;BME280;42176;43.240;27.880;2022-08-14T04:28:18;99267.47;;;26.34;61.10
56270;BME280;42176;43.240;27.880;2022-08-14T04:30:44;99275.41;;;26.89;59.27
56270;BME280;42176;43.240;27.880;2022-08-14T04:33:10;99276.19;;;27.43;57.01
56270;BME280;42176;43.240;27.880;2022-08-14T04:35:36;99271.56;;;27.86;55.41
56270;BME280;42176;43.240;27.880;2022-08-14T04:38:09;99272.16;;;28.23;54.13
56270;BME280;42176;43.240;27.880;2022-08-14T04:40:53;99279.97;;;28.51;52.19
56270;BME280;42176;43.240;27.880;2022-08-14T04:43:37;99277.59;;;28.89;50.99
56270;BME280;42176;43.240;27.880;2022-08-14T04:48:31;99262.38;;;29.51;48.47
56270;BME280;42176;43.240;27.880;2022-08-14T04:50:57;99274.75;;;29.93;47.40
56270;BME280;42176;43.240;27.880;2022-08-14T04:53:25;99270.78;;;30.28;46.75
56270;BME280;42176;43.240;27.880;2022-08-14T04:55:51;99267.81;;;30.61;45.85
56270;BME280;42176;43.240;27.880;2022-08-14T04:58:20;99272.97;;;30.94;44.93
56270;BME280;42176;43.240;27.880;2022-08-14T05:00:48;99271.28;;;31.23;43.94
56270;BME280;42176;43.240;27.880;2022-08-14T05:03:20;99265.97;;;31.51;43.44
56270;BME280;42176;43.240;27.880;2022-08-14T05:05:50;99273.25;;;31.96;42.66
56270;BME280;42176;43.240;27.880;2022-08-14T05:08:16;99268.81;;;32.16;42.23
56270;BME280;42176;43.240;27.880;2022-08-14T05:10:49;99264.06;;;32.47;41.61
56270;BME280;42176;43.240;27.880;2022-08-14T05:13:19;99257.19;;;32.86;40.75
56270;BME280;42176;43.240;27.880;2022-08-14T05:15:45;99252.66;;;33.00;40.22
56270;BME280;42176;43.240;27.880;2022-08-14T05:18:16;99253.66;;;33.28;39.11
56270;BME280;42176;43.240;27.880;2022-08-14T05:20:44;99251.66;;;33.50;38.57
56270;BME280;42176;43.240;27.880;2022-08-14T05:23:18;99254.44;;;33.57;38.48
56270;BME280;42176;43.240;27.880;2022-08-14T05:25:45;99250.38;;;33.52;38.66
56270;BME280;42176;43.240;27.880;2022-08-14T05:28:18;99249.28;;;33.89;37.94
56270;BME280;42176;43.240;27.880;2022-08-14T05:30:45;99245.09;;;34.20;38.05
56270;BME280;42176;43.240;27.880;2022-08-14T05:33:13;99235.78;;;34.34;36.90
56270;BME280;42176;43.240;27.880;2022-08-14T05:35:39;99242.34;;;34.80;36.42
56270;BME280;42176;43.240;27.880;2022-08-14T05:38:09;99224.81;;;34.48;37.02
56270;BME280;42176;43.240;27.880;2022-08-14T05:40:35;99246.78;;;34.34;37.18
56270;BME280;42176;43.240;27.880;2022-08-14T05:43:01;99240.47;;;34.47;36.41
56270;BME280;42176;43.240;27.880;2022-08-14T05:45:27;99246.38;;;34.51;36.81
56270;BME280;42176;43.240;27.880;2022-08-14T05:47:52;99242.56;;;34.65;36.34
56270;BME280;42176;43.240;27.880;2022-08-14T05:50:18;99242.16;;;34.68;36.60
56270;BME280;42176;43.240;27.880;2022-08-14T05:52:43;99233.22;;;34.80;36.13
56270;BME280;42176;43.240;27.880;2022-08-14T05:55:10;99231.09;;;35.02;35.53
56270;BME280;42176;43.240;27.880;2022-08-14T05:57:53;99243.25;;;35.40;35.37
56270;BME280;42176;43.240;27.880;2022-08-14T06:00:22;99240.84;;;35.63;35.07
56270;BME280;42176;43.240;27.880;2022-08-14T06:02:48;99252.31;;;35.99;35.00
56270;BME280;42176;43.240;27.880;2022-08-14T06:05:15;99248.50;;;35.93;34.35
56270;BME280;42176;43.240;27.880;2022-08-14T06:07:41;99247.69;;;35.86;34.29
56270;BME280;42176;43.240;27.880;2022-08-14T06:10:08;99246.00;;;35.85;34.50
56270;BME280;42176;43.240;27.880;2022-08-14T06:12:34;99248.25;;;34.90;36.09
56270;BME280;42176;43.240;27.880;2022-08-14T06:14:59;99249.78;;;34.46;36.99
56270;BME280;42176;43.240;27.880;2022-08-14T06:17:26;99241.72;;;34.58;36.60
56270;BME280;42176;43.240;27.880;2022-08-14T06:19:51;99243.06;;;35.34;35.36
56270;BME280;42176;43.240;27.880;2022-08-14T06:22:17;99245.91;;;34.87;36.47
56270;BME280;42176;43.240;27.880;2022-08-14T06:24:43;99246.38;;;34.24;37.08
56270;BME280;42176;43.240;27.880;2022-08-14T06:27:08;99235.25;;;33.83;38.57
56270;BME280;42176;43.240;27.880;2022-08-14T06:29:35;99242.97;;;34.35;37.52
56270;BME280;42176;43.240;27.880;2022-08-14T06:32:02;99238.94;;;34.24;37.68
56270;BME280;42176;43.240;27.880;2022-08-14T06:34:27;99237.66;;;34.13;37.70
56270;BME280;42176;43.240;27.880;2022-08-14T06:36:53;99232.38;;;34.86;36.61
56270;BME280;42176;43.240;27.880;2022-08-14T06:39:21;99229.38;;;35.08;35.69
56270;BME280;42176;43.240;27.880;2022-08-14T06:41:47;99244.34;;;35.25;35.71
56270;BME280;42176;43.240;27.880;2022-08-14T06:44:12;99233.88;;;35.54;35.17
56270;BME280;42176;43.240;27.880;2022-08-14T06:46:37;99235.19;;;36.22;34.26
56270;BME280;42176;43.240;27.880;2022-08-14T06:49:03;99230.56;;;37.78;31.60
56270;BME280;42176;43.240;27.880;2022-08-14T06:51:28;99227.75;;;38.75;29.95
56270;BME280;42176;43.240;27.880;2022-08-14T06:53:54;99233.06;;;38.89;30.00
56270;BME280;42176;43.240;27.880;2022-08-14T06:56:20;99231.75;;;38.91;29.98
56270;BME280;42176;43.240;27.880;2022-08-14T06:58:45;99221.75;;;39.43;29.07
56270;BME280;42176;43.240;27.880;2022-08-14T07:01:11;99231.56;;;39.63;28.91
56270;BME280;42176;43.240;27.880;2022-08-14T07:03:55;99232.28;;;39.99;28.75
56270;BME280;42176;43.240;27.880;2022-08-14T07:06:40;99219.25;;;40.50;27.47
56270;BME280;42176;43.240;27.880;2022-08-14T07:09:05;99222.03;;;40.50;27.46
56270;BME280;42176;43.240;27.880;2022-08-14T07:11:30;99230.75;;;40.93;26.86
56270;BME280;42176;43.240;27.880;2022-08-14T07:13:56;99228.88;;;41.38;26.20
56270;BME280;42176;43.240;27.880;2022-08-14T07:16:21;99218.88;;;41.43;25.99
56270;BME280;42176;43.240;27.880;2022-08-14T07:18:47;99220.56;;;41.44;26.24
56270;BME280;42176;43.240;27.880;2022-08-14T07:21:13;99220.09;;;41.74;26.06
56270;BME280;42176;43.240;27.880;2022-08-14T07:23:40;99221.56;;;41.82;25.29
56270;BME280;42176;43.240;27.880;2022-08-14T07:26:05;99224.84;;;41.29;25.92
56270;BME280;42176;43.240;27.880;2022-08-14T07:28:34;99229.31;;;41.52;25.78
56270;BME280;42176;43.240;27.880;2022-08-14T07:31:03;99223.09;;;41.45;26.17
56270;BME280;42176;43.240;27.880;2022-08-14T07:33:33;99219.06;;;41.53;26.12
56270;BME280;42176;43.240;27.880;2022-08-14T07:36:01;99207.31;;;42.00;25.47
56270;BME280;42176;43.240;27.880;2022-08-14T07:38:27;99218.50;;;41.83;25.53
56270;BME280;42176;43.240;27.880;2022-08-14T07:40:52;99222.03;;;41.24;26.52
56270;BME280;42176;43.240;27.880;2022-08-14T07:43:18;99224.59;;;41.08;26.55
56270;BME280;42176;43.240;27.880;2022-08-14T07:45:44;99214.53;;;40.85;26.88
56270;BME280;42176;43.240;27.880;2022-08-14T07:48:12;99220.19;;;40.73;26.65
56270;BME280;42176;43.240;27.880;2022-08-14T07:50:38;99203.50;;;41.13;26.53
56270;BME280;42176;43.240;27.880;2022-08-14T07:53:04;99215.66;;;41.06;26.36
56270;BME280;42176;43.240;27.880;2022-08-14T07:55:31;99196.94;;;41.19;26.24
56270;BME280;42176;43.240;27.880;2022-08-14T07:57:56;99202.69;;;41.34;26.32
56270;BME280;42176;43.240;27.880;2022-08-14T08:00:23;99201.25;;;41.32;26.08
56270;BME280;42176;43.240;27.880;2022-08-14T08:02:59;99197.03;;;41.29;26.30
56270;BME280;42176;43.240;27.880;2022-08-14T08:05:30;99201.47;;;41.25;25.87
56270;BME280;42176;43.240;27.880;2022-08-14T08:07:56;99167.25;;;41.02;26.18
56270;BME280;42176;43.240;27.880;2022-08-14T08:10:24;99186.06;;;41.39;26.29
56270;BME280;42176;43.240;27.880;2022-08-14T08:15:24;99184.38;;;41.38;26.35
56270;BME280;42176;43.240;27.880;2022-08-14T08:17:50;99184.66;;;41.15;26.50
56270;BME280;42176;43.240;27.880;2022-08-14T08:20:24;99177.66;;;41.34;26.51
56270;BME280;42176;43.240;27.880;2022-08-14T08:22:51;99187.28;;;41.27;26.72
56270;BME280;42176;43.240;27.880;2022-08-14T08:25:17;99185.31;;;41.22;26.47
56270;BME280;42176;43.240;27.880;2022-08-14T08:28:07;99172.59;;;41.31;26.68
56270;BME280;42176;43.240;27.880;2022-08-14T08:30:35;99176.44;;;41.25;27.05
56270;BME280;42176;43.240;27.880;2022-08-14T08:33:02;99179.22;;;41.25;26.66
56270;BME280;42176;43.240;27.880;2022-08-14T08:35:30;99171.16;;;40.45;28.18
56270;BME280;42176;43.240;27.880;2022-08-14T08:38:07;99185.22;;;40.38;28.19
56270;BME280;42176;43.240;27.880;2022-08-14T08:40:38;99178.38;;;39.95;28.03
56270;BME280;42176;43.240;27.880;2022-08-14T08:43:07;99166.25;;;39.84;28.29
56270;BME280;42176;43.240;27.880;2022-08-14T08:45:37;99182.16;;;39.88;28.26
56270;BME280;42176;43.240;27.880;2022-08-14T08:48:03;99167.38;;;40.00;28.07
56270;BME280;42176;43.240;27.880;2022-08-14T08:50:33;99166.78;;;39.98;28.25
56270;BME280;42176;43.240;27.880;2022-08-14T08:53:06;99166.03;;;40.02;28.22
56270;BME280;42176;43.240;27.880;2022-08-14T08:55:41;99158.22;;;39.82;28.54
56270;BME280;42176;43.240;27.880;2022-08-14T08:58:10;99156.25;;;39.37;29.04
56270;BME280;42176;43.240;27.880;2022-08-14T09:00:38;99155.16;;;38.85;30.00
56270;BME280;42176;43.240;27.880;2022-08-14T09:03:10;99159.03;;;38.60;30.14
56270;BME280;42176;43.240;27.880;2022-08-14T09:05:38;99153.34;;;38.31;31.15
56270;BME280;42176;43.240;27.880;2022-08-14T09:08:19;99152.91;;;37.68;31.64
56270;BME280;42176;43.240;27.880;2022-08-14T09:10:46;99149.50;;;37.05;33.26
56270;BME280;42176;43.240;27.880;2022-08-14T09:13:13;99151.59;;;35.64;34.94
56270;BME280;42176;43.240;27.880;2022-08-14T09:15:42;99149.28;;;35.16;36.38
56270;BME280;42176;43.240;27.880;2022-08-14T09:18:10;99138.91;;;34.05;38.78
56270;BME280;42176;43.240;27.880;2022-08-14T09:20:41;99141.00;;;34.16;38.79
56270;BME280;42176;43.240;27.880;2022-08-14T09:23:09;99130.88;;;34.24;38.84
56270;BME280;42176;43.240;27.880;2022-08-14T09:25:38;99138.16;;;33.43;40.14
56270;BME280;42176;43.240;27.880;2022-08-14T09:28:06;99138.66;;;33.04;41.64
56270;BME280;42176;43.240;27.880;2022-08-14T09:30:34;99125.09;;;32.96;42.13
56270;BME280;42176;43.240;27.880;2022-08-14T09:33:03;99123.25;;;33.10;41.75
56270;BME280;42176;43.240;27.880;2022-08-14T09:35:37;99120.53;;;33.10;41.41
56270;BME280;42176;43.240;27.880;2022-08-14T09:38:21;99120.56;;;32.40;43.14
56270;BME280;42176;43.240;27.880;2022-08-14T09:44:05;99110.44;;;31.47;45.84
56270;BME280;42176;43.240;27.880;2022-08-14T09:46:33;99108.53;;;31.84;45.18
56270;BME280;42176;43.240;27.880;2022-08-14T09:49:00;99107.19;;;32.01;45.23
56270;BME280;42176;43.240;27.880;2022-08-14T09:51:27;99115.03;;;31.83;46.10
56270;BME280;42176;43.240;27.880;2022-08-14T09:54:04;99109.13;;;31.21;46.32
56270;BME280;42176;43.240;27.880;2022-08-14T09:56:46;99118.78;;;30.87;48.98
56270;BME280;42176;43.240;27.880;2022-08-14T09:59:14;99122.38;;;30.42;49.36
56270;BME280;42176;43.240;27.880;2022-08-14T10:01:41;99123.09;;;30.21;50.70
56270;BME280;42176;43.240;27.880;2022-08-14T10:04:22;99121.50;;;29.88;50.45
56270;BME280;42176;43.240;27.880;2022-08-14T10:06:49;99123.63;;;29.78;50.88
56270;BME280;42176;43.240;27.880;2022-08-14T10:09:16;99127.16;;;30.40;50.13
56270;BME280;42176;43.240;27.880;2022-08-14T10:11:55;99132.47;;;30.87;48.24
56270;BME280;42176;43.240;27.880;2022-08-14T10:14:23;99120.22;;;29.99;48.79
56270;BME280;42176;43.240;27.880;2022-08-14T10:16:55;99117.13;;;29.79;50.61
56270;BME280;42176;43.240;27.880;2022-08-14T10:19:25;99114.34;;;31.01;48.62
56270;BME280;42176;43.240;27.880;2022-08-14T10:24:46;99122.34;;;31.54;47.45
56270;BME280;42176;43.240;27.880;2022-08-14T10:27:17;99113.34;;;31.82;44.96
56270;BME280;42176;43.240;27.880;2022-08-14T10:29:47;99112.66;;;30.25;46.77
56270;BME280;42176;43.240;27.880;2022-08-14T10:32:13;99110.88;;;30.47;48.64
56270;BME280;42176;43.240;27.880;2022-08-14T10:34:39;99122.94;;;30.52;48.55
56270;BME280;42176;43.240;27.880;2022-08-14T10:37:07;99120.34;;;30.06;50.76
56270;BME280;42176;43.240;27.880;2022-08-14T10:39:36;99124.59;;;30.08;50.07
56270;BME280;42176;43.240;27.880;2022-08-14T10:42:06;99122.31;;;30.50;50.07
56270;BME280;42176;43.240;27.880;2022-08-14T10:44:41;99128.53;;;30.74;47.27
56270;BME280;42176;43.240;27.880;2022-08-14T10:47:11;99134.50;;;30.63;49.22
56270;BME280;42176;43.240;27.880;2022-08-14T10:49:43;99147.06;;;30.34;49.95
56270;BME280;42176;43.240;27.880;2022-08-14T10:52:28;99143.53;;;30.63;49.99
56270;BME280;42176;43.240;27.880;2022-08-14T10:55:11;99133.25;;;30.80;47.93
56270;BME280;42176;43.240;27.880;2022-08-14T10:57:54;99121.72;;;30.70;43.79
56270;BME280;42176;43.240;27.880;2022-08-14T11:00:24;99104.94;;;30.73;44.24
56270;BME280;42176;43.240;27.880;2022-08-14T11:02:59;99094.47;;;30.92;46.00
56270;BME280;42176;43.240;27.880;2022-08-14T11:05:40;99095.53;;;30.61;46.52
56270;BME280;42176;43.240;27.880;2022-08-14T11:08:07;99080.22;;;30.21;49.67
56270;BME280;42176;43.240;27.880;2022-08-14T11:10:48;99077.66;;;29.67;50.66
56270;BME280;42176;43.240;27.880;2022-08-14T11:13:17;99076.22;;;29.94;51.30
56270;BME280;42176;43.240;27.880;2022-08-14T11:15:43;99084.09;;;29.74;50.57
56270;BME280;42176;43.240;27.880;2022-08-14T11:18:11;99068.75;;;29.88;50.02
56270;BME280;42176;43.240;27.880;2022-08-14T11:20:36;99080.44;;;30.35;48.99
56270;BME280;42176;43.240;27.880;2022-08-14T11:23:04;99072.03;;;30.21;50.45
56270;BME280;42176;43.240;27.880;2022-08-14T11:25:31;99064.75;;;29.99;48.96
56270;BME280;42176;43.240;27.880;2022-08-14T11:27:58;99061.56;;;30.10;50.00
56270;BME280;42176;43.240;27.880;2022-08-14T11:30:27;99080.41;;;30.05;51.50
56270;BME280;42176;43.240;27.880;2022-08-14T11:32:53;99073.56;;;30.24;49.92
56270;BME280;42176;43.240;27.880;2022-08-14T11:35:21;99093.97;;;30.13;50.08
56270;BME280;42176;43.240;27.880;2022-08-14T11:37:59;99097.59;;;30.29;47.70
56270;BME280;42176;43.240;27.880;2022-08-14T11:40:31;99095.13;;;30.34;48.75
56270;BME280;42176;43.240;27.880;2022-08-14T11:43:00;99097.00;;;30.18;49.57
56270;BME280;42176;43.240;27.880;2022-08-14T11:45:28;99090.63;;;29.65;51.99
56270;BME280;42176;43.240;27.880;2022-08-14T11:48:13;99096.59;;;29.45;54.10
56270;BME280;42176;43.240;27.880;2022-08-14T11:50:38;99078.38;;;29.60;54.29
56270;BME280;42176;43.240;27.880;2022-08-14T11:53:06;99073.91;;;29.68;51.48
56270;BME280;42176;43.240;27.880;2022-08-14T11:55:36;99082.13;;;29.59;52.82
56270;BME280;42176;43.240;27.880;2022-08-14T11:58:05;99081.63;;;29.32;54.03
56270;BME280;42176;43.240;27.880;2022-08-14T12:00:30;99067.97;;;29.41;53.78
56270;BME280;42176;43.240;27.880;2022-08-14T12:02:59;99067.22;;;29.47;53.44
56270;BME280;42176;43.240;27.880;2022-08-14T12:05:36;99072.59;;;29.09;54.09
56270;BME280;42176;43.240;27.880;2022-08-14T12:08:04;99066.47;;;29.07;55.57
56270;BME280;42176;43.240;27.880;2022-08-14T12:10:38;99054.59;;;29.23;54.98
56270;BME280;42176;43.240;27.880;2022-08-14T12:15:36;99050.81;;;28.61;60.00
56270;BME280;42176;43.240;27.880;2022-08-14T12:18:02;99046.53;;;28.75;59.51
56270;BME280;42176;43.240;27.880;2022-08-14T12:20:29;99042.09;;;28.65;61.23
56270;BME280;42176;43.240;27.880;2022-08-14T12:22:55;99044.91;;;28.89;59.71
56270;BME280;42176;43.240;27.880;2022-08-14T12:25:22;99045.81;;;28.81;59.20
56270;BME280;42176;43.240;27.880;2022-08-14T12:27:50;99055.06;;;29.03;60.44
56270;BME280;42176;43.240;27.880;2022-08-14T12:32:54;99068.19;;;29.77;56.65
56270;BME280;42176;43.240;27.880;2022-08-14T12:35:21;99072.00;;;29.68;54.71
56270;BME280;42176;43.240;27.880;2022-08-14T12:37:51;99052.78;;;29.61;53.93
56270;BME280;42176;43.240;27.880;2022-08-14T12:40:18;99071.84;;;29.70;54.17
56270;BME280;42176;43.240;27.880;2022-08-14T12:42:48;99067.31;;;28.67;54.19
56270;BME280;42176;43.240;27.880;2022-08-14T12:45:14;99073.72;;;28.91;52.68
56270;BME280;42176;43.240;27.880;2022-08-14T12:47:40;99072.41;;;29.10;53.85
56270;BME280;42176;43.240;27.880;2022-08-14T12:50:07;99066.28;;;29.40;51.82
56270;BME280;42176;43.240;27.880;2022-08-14T12:52:38;99061.97;;;29.14;49.96
56270;BME280;42176;43.240;27.880;2022-08-14T12:55:17;99066.81;;;28.72;51.43
56270;BME280;42176;43.240;27.880;2022-08-14T12:57:46;99061.84;;;29.30;50.92
56270;BME280;42176;43.240;27.880;2022-08-14T13:00:23;99060.53;;;29.26;52.34
56270;BME280;42176;43.240;27.880;2022-08-14T13:02:51;99059.91;;;29.16;53.35
56270;BME280;42176;43.240;27.880;2022-08-14T13:05:26;99052.06;;;29.68;52.00
56270;BME280;42176;43.240;27.880;2022-08-14T13:07:53;99053.97;;;29.82;50.86
56270;BME280;42176;43.240;27.880;2022-08-14T13:10:20;99053.88;;;29.52;53.83
56270;BME280;42176;43.240;27.880;2022-08-14T13:12:48;99052.06;;;29.44;55.45
56270;BME280;42176;43.240;27.880;2022-08-14T13:15:15;99054.50;;;29.39;54.87
56270;BME280;42176;43.240;27.880;2022-08-14T13:17:49;99061.03;;;29.30;55.25